createdAt,value
2019-02-26T00:00:00.408Z,0.00
2019-02-26T00:01:00.395Z,0.00
2019-02-26T00:02:02.523Z,0.00
2019-02-26T00:03:02.423Z,0.00
2019-02-26T00:04:00.402Z,0.00
2019-02-26T00:05:02.886Z,0.00
2019-02-26T00:05:59.460Z,0.00
2019-02-26T00:07:00.497Z,0.00
2019-02-26T00:08:02.461Z,0.00
2019-02-26T00:09:01.948Z,0.00
2019-02-26T00:10:02.606Z,0.00
2019-02-26T00:11:01.274Z,0.00
2019-02-26T00:12:00.393Z,0.00
2019-02-26T00:13:01.393Z,0.00
2019-02-26T00:14:00.395Z,0.00
2019-02-26T00:15:02.523Z,0.00
2019-02-26T00:16:03.159Z,0.00
2019-02-26T00:17:06.213Z,0.00
2019-02-26T00:18:00.395Z,0.00
2019-02-26T00:19:02.623Z,0.00
2019-02-26T00:20:00.411Z,0.00
2019-02-26T00:21:02.426Z,0.00
2019-02-26T00:22:00.416Z,0.00
2019-02-26T00:22:59.758Z,0.00
2019-02-26T00:24:00.392Z,0.00
2019-02-26T00:25:00.908Z,0.00
2019-02-26T00:26:00.397Z,0.00
2019-02-26T00:27:01.486Z,0.00
2019-02-26T00:28:00.408Z,0.00
2019-02-26T00:29:01.819Z,0.00
2019-02-26T00:29:59.909Z,0.00
2019-02-26T00:31:01.652Z,0.00
2019-02-26T00:31:59.891Z,0.00
2019-02-26T00:33:02.510Z,0.00
2019-02-26T00:33:59.902Z,0.00
2019-02-26T00:35:01.718Z,0.00
2019-02-26T00:35:59.891Z,0.00
2019-02-26T00:37:01.631Z,0.00
2019-02-26T00:37:59.892Z,0.00
2019-02-26T00:39:00.618Z,0.00
2019-02-26T00:39:59.410Z,0.00
2019-02-26T00:41:01.755Z,0.00
2019-02-26T00:42:00.849Z,0.00
2019-02-26T00:43:02.030Z,0.00
2019-02-26T00:44:02.088Z,0.00
2019-02-26T00:45:02.354Z,0.00
2019-02-26T00:46:00.808Z,0.00
2019-02-26T00:47:01.913Z,0.00
2019-02-26T00:47:59.892Z,0.00
2019-02-26T00:49:00.859Z,0.00
2019-02-26T00:49:59.901Z,0.00
2019-02-26T00:51:01.056Z,0.00
2019-02-26T00:51:59.903Z,0.00
2019-02-26T00:53:01.570Z,0.00
2019-02-26T00:54:01.833Z,0.00
2019-02-26T00:55:01.877Z,0.00
2019-02-26T00:56:01.056Z,0.00
2019-02-26T00:57:01.646Z,0.00
2019-02-26T00:58:01.007Z,0.00
2019-02-26T00:58:59.888Z,0.00
2019-02-26T01:00:00.866Z,0.00
2019-02-26T01:00:59.889Z,0.00
2019-02-26T01:01:59.890Z,0.00
2019-02-26T01:03:01.426Z,0.00
2019-02-26T01:03:59.894Z,0.00
2019-02-26T01:04:59.891Z,0.00
2019-02-26T01:06:01.551Z,0.00
2019-02-26T01:07:01.182Z,0.00
2019-02-26T01:07:59.888Z,0.00
2019-02-26T01:09:01.836Z,0.00
2019-02-26T01:09:59.902Z,0.00
2019-02-26T01:11:01.538Z,0.00
2019-02-26T01:11:59.888Z,0.00
2019-02-26T01:13:01.440Z,0.00
2019-02-26T01:13:59.890Z,0.00
2019-02-26T01:14:59.890Z,0.00
2019-02-26T01:15:59.906Z,0.00
2019-02-26T01:16:59.889Z,0.00
2019-02-26T01:18:01.409Z,0.00
2019-02-26T01:18:59.387Z,0.00
2019-02-26T01:19:58.792Z,0.00
2019-02-26T01:21:00.269Z,0.00
2019-02-26T01:21:59.404Z,0.00
2019-02-26T01:22:59.402Z,0.00
2019-02-26T01:24:01.590Z,0.00
2019-02-26T01:24:59.405Z,0.00
2019-02-26T01:25:59.387Z,0.00
2019-02-26T01:26:59.402Z,0.00
2019-02-26T01:28:00.427Z,0.00
2019-02-26T01:29:00.971Z,0.00
2019-02-26T01:30:00.390Z,0.00
2019-02-26T01:31:00.284Z,0.00
2019-02-26T01:31:59.406Z,0.00
2019-02-26T01:33:00.585Z,0.00
2019-02-26T01:33:59.388Z,0.00
2019-02-26T01:35:00.943Z,0.00
2019-02-26T01:36:00.289Z,0.00
2019-02-26T01:36:57.699Z,0.00
2019-02-26T01:38:00.557Z,0.00
2019-02-26T01:38:59.386Z,0.00
2019-02-26T01:39:59.385Z,0.00
2019-02-26T01:40:59.385Z,0.00
2019-02-26T01:41:59.395Z,0.00
2019-02-26T01:43:01.133Z,0.00
2019-02-26T01:43:59.385Z,0.00
2019-02-26T01:44:59.388Z,0.00
2019-02-26T01:45:59.385Z,0.00
2019-02-26T01:47:00.835Z,0.00
2019-02-26T01:47:59.401Z,0.00
2019-02-26T01:48:59.902Z,0.00
2019-02-26T01:49:59.486Z,0.00
2019-02-26T01:51:01.084Z,0.00
2019-02-26T01:51:59.386Z,0.00
2019-02-26T01:53:01.040Z,0.00
2019-02-26T01:53:58.389Z,0.00
2019-02-26T01:55:00.628Z,0.00
2019-02-26T01:55:59.384Z,0.00
2019-02-26T01:56:59.400Z,0.00
2019-02-26T01:57:59.384Z,0.00
2019-02-26T01:59:02.231Z,0.00
2019-02-26T01:59:59.383Z,0.00
2019-02-26T02:00:59.383Z,0.00
2019-02-26T02:01:59.383Z,0.00
2019-02-26T02:02:59.396Z,0.00
2019-02-26T02:03:59.405Z,0.00
2019-02-26T02:05:00.111Z,0.00
2019-02-26T02:05:59.383Z,0.00
2019-02-26T02:06:59.051Z,0.00
2019-02-26T02:07:58.885Z,0.00
2019-02-26T02:08:58.914Z,0.00
2019-02-26T02:10:00.594Z,0.00
2019-02-26T02:10:59.853Z,0.00
2019-02-26T02:11:59.997Z,0.00
2019-02-26T02:13:00.305Z,0.00
2019-02-26T02:14:01.845Z,0.00
2019-02-26T02:14:58.893Z,0.00
2019-02-26T02:15:59.828Z,0.00
2019-02-26T02:16:57.292Z,0.00
2019-02-26T02:17:59.540Z,0.00
2019-02-26T02:18:59.966Z,0.00
2019-02-26T02:20:02.940Z,0.00
2019-02-26T02:20:58.884Z,0.00
2019-02-26T02:21:58.896Z,0.00
2019-02-26T02:23:00.587Z,0.00
2019-02-26T02:23:58.885Z,0.00
2019-02-26T02:24:58.893Z,0.00
2019-02-26T02:26:02.113Z,0.00
2019-02-26T02:27:00.353Z,0.00
2019-02-26T02:27:59.535Z,0.00
2019-02-26T02:28:58.881Z,0.00
2019-02-26T02:29:58.885Z,0.00
2019-02-26T02:30:58.891Z,0.00
2019-02-26T02:32:02.246Z,0.00
2019-02-26T02:33:02.000Z,0.00
2019-02-26T02:33:57.129Z,0.00
2019-02-26T02:35:03.427Z,0.00
2019-02-26T02:35:59.889Z,0.00
2019-02-26T02:36:58.884Z,0.00
2019-02-26T02:38:00.086Z,0.00
2019-02-26T02:38:58.909Z,0.00
2019-02-26T02:39:58.880Z,0.00
2019-02-26T02:40:58.891Z,0.00
2019-02-26T02:41:58.884Z,0.00
2019-02-26T02:43:03.987Z,0.00
2019-02-26T02:43:59.884Z,0.00
2019-02-26T02:44:58.899Z,0.00
2019-02-26T02:46:01.226Z,0.00
2019-02-26T02:47:01.386Z,0.00
2019-02-26T02:48:00.729Z,0.00
2019-02-26T02:48:58.879Z,0.00
2019-02-26T02:49:58.880Z,0.00
2019-02-26T02:50:56.941Z,0.00
2019-02-26T02:52:01.349Z,0.00
2019-02-26T02:52:59.696Z,0.00
2019-02-26T02:53:59.362Z,0.00
2019-02-26T02:54:57.881Z,0.00
2019-02-26T02:55:58.381Z,0.00
2019-02-26T02:57:00.003Z,0.00
2019-02-26T02:58:00.440Z,0.00
2019-02-26T02:58:58.378Z,0.00
2019-02-26T02:59:59.715Z,0.00
2019-02-26T03:01:00.285Z,0.00
2019-02-26T03:01:58.383Z,0.00
2019-02-26T03:02:58.433Z,0.00
2019-02-26T03:04:00.975Z,0.00
2019-02-26T03:04:58.391Z,0.00
2019-02-26T03:06:00.840Z,0.00
2019-02-26T03:07:00.546Z,0.00
2019-02-26T03:07:58.378Z,0.00
2019-02-26T03:08:58.379Z,0.00
2019-02-26T03:10:00.409Z,0.00
2019-02-26T03:10:58.389Z,0.00
2019-02-26T03:11:58.390Z,0.00
2019-02-26T03:13:00.435Z,0.00
2019-02-26T03:13:56.696Z,0.00
2019-02-26T03:14:59.987Z,0.00
2019-02-26T03:15:59.246Z,0.00
2019-02-26T03:16:58.397Z,0.00
2019-02-26T03:17:58.392Z,0.00
2019-02-26T03:18:58.391Z,0.00
2019-02-26T03:20:00.749Z,0.00
2019-02-26T03:20:59.970Z,0.00
2019-02-26T03:21:58.392Z,0.00
2019-02-26T03:22:58.377Z,0.00
2019-02-26T03:24:00.852Z,0.00
2019-02-26T03:24:59.668Z,0.00
2019-02-26T03:25:58.384Z,0.00
2019-02-26T03:26:58.406Z,0.00
2019-02-26T03:27:58.394Z,0.00
2019-02-26T03:28:58.386Z,0.00
2019-02-26T03:30:01.620Z,0.00
2019-02-26T03:30:56.515Z,0.00
2019-02-26T03:31:58.388Z,0.00
2019-02-26T03:33:03.869Z,0.00
2019-02-26T03:34:04.210Z,0.00
2019-02-26T03:35:02.029Z,0.00
2019-02-26T03:35:59.401Z,0.00
2019-02-26T03:36:59.842Z,0.00
2019-02-26T03:38:00.672Z,0.00
2019-02-26T03:39:00.753Z,0.00
2019-02-26T03:40:00.131Z,0.00
2019-02-26T03:41:00.625Z,0.00
2019-02-26T03:41:58.399Z,0.00
2019-02-26T03:42:58.382Z,0.00
2019-02-26T03:44:00.544Z,0.00
2019-02-26T03:44:59.660Z,0.00
2019-02-26T03:45:57.883Z,0.00
2019-02-26T03:46:57.901Z,0.00
2019-02-26T03:47:58.060Z,0.00
2019-02-26T03:49:02.512Z,0.00
2019-02-26T03:49:58.882Z,0.00
2019-02-26T03:51:00.588Z,0.00
2019-02-26T03:52:00.033Z,0.00
2019-02-26T03:52:57.873Z,0.00
2019-02-26T03:53:57.883Z,0.00
2019-02-26T03:54:57.880Z,0.00
2019-02-26T03:56:01.918Z,0.00
2019-02-26T03:56:58.889Z,0.00
2019-02-26T03:58:01.408Z,0.00
2019-02-26T03:59:00.237Z,0.00
2019-02-26T03:59:59.525Z,0.00
2019-02-26T04:01:01.757Z,0.00
2019-02-26T04:01:57.890Z,0.00
2019-02-26T04:02:57.874Z,0.00
2019-02-26T04:03:59.713Z,0.00
2019-02-26T04:04:59.902Z,0.00
2019-02-26T04:06:00.303Z,0.00
2019-02-26T04:06:58.578Z,0.00
2019-02-26T04:07:59.526Z,0.00
2019-02-26T04:08:57.873Z,0.00
2019-02-26T04:09:58.562Z,0.00
2019-02-26T04:10:59.539Z,0.00
2019-02-26T04:11:57.922Z,0.00
2019-02-26T04:12:58.231Z,0.00
2019-02-26T04:13:57.872Z,0.00
2019-02-26T04:14:57.871Z,0.00
2019-02-26T04:15:59.691Z,0.00
2019-02-26T04:17:00.382Z,0.00
2019-02-26T04:17:57.871Z,0.00
2019-02-26T04:18:57.874Z,0.00
2019-02-26T04:19:57.873Z,0.00
2019-02-26T04:21:03.198Z,0.00
2019-02-26T04:21:58.880Z,0.00
2019-02-26T04:22:57.889Z,0.00
2019-02-26T04:23:58.636Z,0.00
2019-02-26T04:25:01.024Z,0.00
2019-02-26T04:25:59.863Z,0.00
2019-02-26T04:26:57.881Z,0.00
2019-02-26T04:27:57.021Z,0.00
2019-02-26T04:28:57.879Z,0.00
2019-02-26T04:29:57.869Z,0.00
2019-02-26T04:30:57.873Z,0.00
2019-02-26T04:31:57.761Z,0.00
2019-02-26T04:32:57.369Z,0.00
2019-02-26T04:34:01.138Z,0.00
2019-02-26T04:34:59.633Z,0.00
2019-02-26T04:35:57.372Z,0.00
2019-02-26T04:36:59.115Z,0.00
2019-02-26T04:37:58.574Z,0.00
2019-02-26T04:38:57.368Z,0.00
2019-02-26T04:39:59.206Z,0.00
2019-02-26T04:41:00.244Z,0.00
2019-02-26T04:41:57.381Z,0.00
2019-02-26T04:42:59.339Z,0.00
2019-02-26T04:44:00.445Z,0.00
2019-02-26T04:44:58.151Z,0.00
2019-02-26T04:45:59.276Z,0.00
2019-02-26T04:46:59.592Z,0.00
2019-02-26T04:47:58.511Z,0.00
2019-02-26T04:48:57.370Z,0.00
2019-02-26T04:50:00.004Z,0.00
2019-02-26T04:50:57.370Z,0.00
2019-02-26T04:51:57.382Z,0.00
2019-02-26T04:53:01.431Z,0.00
2019-02-26T04:53:59.490Z,0.00
2019-02-26T04:54:57.373Z,0.00
2019-02-26T04:55:57.983Z,0.00
2019-02-26T04:56:57.378Z,0.00
2019-02-26T04:57:57.380Z,0.00
2019-02-26T04:58:57.366Z,0.00
2019-02-26T04:59:59.148Z,0.00
2019-02-26T05:00:57.373Z,0.00
2019-02-26T05:01:57.486Z,0.00
2019-02-26T05:02:57.371Z,0.00
2019-02-26T05:03:57.366Z,0.00
2019-02-26T05:04:57.367Z,0.00
2019-02-26T05:06:00.172Z,0.00
2019-02-26T05:06:57.384Z,0.00
2019-02-26T05:07:57.368Z,0.00
2019-02-26T05:09:00.202Z,0.00
2019-02-26T05:09:59.355Z,0.00
2019-02-26T05:10:59.538Z,0.00
2019-02-26T05:11:57.365Z,0.00
2019-02-26T05:13:00.159Z,0.00
2019-02-26T05:13:58.374Z,0.00
2019-02-26T05:14:57.364Z,0.00
2019-02-26T05:15:57.367Z,0.00
2019-02-26T05:16:57.370Z,0.00
2019-02-26T05:17:57.381Z,0.00
2019-02-26T05:18:58.486Z,0.00
2019-02-26T05:19:57.439Z,0.00
2019-02-26T05:20:59.181Z,0.00
2019-02-26T05:21:59.343Z,0.00
2019-02-26T05:23:00.050Z,0.00
2019-02-26T05:23:57.645Z,0.00
2019-02-26T05:24:56.863Z,0.00
2019-02-26T05:25:59.736Z,0.00
2019-02-26T05:26:56.876Z,0.00
2019-02-26T05:27:56.866Z,0.00
2019-02-26T05:28:56.873Z,0.00
2019-02-26T05:29:56.865Z,0.00
2019-02-26T05:30:56.865Z,0.00
2019-02-26T05:31:58.844Z,0.00
2019-02-26T05:32:58.263Z,0.00
2019-02-26T05:34:50.679Z,0.00
2019-02-26T05:35:51.490Z,0.00
2019-02-26T05:36:49.342Z,0.00
2019-02-26T05:37:49.333Z,0.00
2019-02-26T05:38:51.741Z,0.00
2019-02-26T05:39:51.713Z,0.00
2019-02-26T05:40:53.111Z,0.00
2019-02-26T05:41:47.475Z,0.00
2019-02-26T05:42:49.322Z,0.00
2019-02-26T05:43:52.196Z,0.00
2019-02-26T05:44:53.813Z,0.00
2019-02-26T05:45:50.956Z,0.00
2019-02-26T05:46:50.806Z,0.00
2019-02-26T05:47:51.303Z,0.00
2019-02-26T05:48:51.182Z,0.00
2019-02-26T05:49:49.324Z,0.00
2019-02-26T05:50:49.345Z,0.00
2019-02-26T05:51:49.325Z,0.00
2019-02-26T05:52:50.269Z,0.00
2019-02-26T05:53:50.325Z,0.00
2019-02-26T05:54:49.325Z,0.00
2019-02-26T05:55:51.202Z,0.00
2019-02-26T05:56:49.750Z,0.00
2019-02-26T05:57:48.887Z,0.00
2019-02-26T05:58:48.833Z,0.00
2019-02-26T05:59:48.883Z,0.00
2019-02-26T06:00:48.841Z,0.00
2019-02-26T06:01:51.930Z,0.00
2019-02-26T06:02:51.008Z,0.00
2019-02-26T06:03:51.704Z,0.00
2019-02-26T06:04:48.822Z,0.00
2019-02-26T06:05:51.356Z,0.00
2019-02-26T06:06:52.727Z,0.00
2019-02-26T06:07:48.835Z,0.00
2019-02-26T06:08:48.831Z,0.00
2019-02-26T06:09:50.923Z,0.00
2019-02-26T06:10:48.822Z,0.00
2019-02-26T06:11:50.130Z,0.00
2019-02-26T06:12:48.823Z,0.00
2019-02-26T06:13:48.854Z,0.00
2019-02-26T06:14:48.819Z,0.00
2019-02-26T06:15:51.283Z,0.00
2019-02-26T06:16:50.849Z,5.62
2019-02-26T06:17:50.833Z,5.62
2019-02-26T06:18:49.089Z,5.62
2019-02-26T06:19:48.818Z,5.62
2019-02-26T06:20:50.931Z,5.62
2019-02-26T06:21:49.749Z,5.62
2019-02-26T06:22:48.822Z,5.62
2019-02-26T06:23:48.834Z,11.25
2019-02-26T06:24:48.838Z,11.25
2019-02-26T06:25:48.818Z,11.25
2019-02-26T06:26:48.821Z,11.25
2019-02-26T06:27:47.997Z,11.25
2019-02-26T06:28:50.507Z,11.25
2019-02-26T06:29:52.840Z,16.88
2019-02-26T06:30:49.828Z,16.88
2019-02-26T06:31:49.433Z,16.88
2019-02-26T06:32:48.820Z,16.88
2019-02-26T06:33:47.797Z,22.50
2019-02-26T06:34:48.830Z,22.50
2019-02-26T06:35:48.837Z,22.50
2019-02-26T06:36:49.279Z,22.50
2019-02-26T06:37:48.820Z,28.12
2019-02-26T06:38:49.605Z,28.12
2019-02-26T06:39:52.641Z,28.12
2019-02-26T06:40:51.388Z,33.75
2019-02-26T06:41:49.154Z,33.75
2019-02-26T06:42:48.819Z,33.75
2019-02-26T06:43:50.358Z,39.38
2019-02-26T06:44:49.430Z,39.38
2019-02-26T06:45:48.318Z,39.38
2019-02-26T06:46:48.341Z,45.00
2019-02-26T06:47:50.747Z,45.00
2019-02-26T06:48:48.318Z,45.00
2019-02-26T06:49:50.209Z,50.62
2019-02-26T06:50:46.764Z,50.62
2019-02-26T06:51:49.843Z,50.62
2019-02-26T06:52:50.553Z,50.62
2019-02-26T06:53:49.807Z,56.25
2019-02-26T06:54:54.803Z,56.25
2019-02-26T06:55:49.328Z,56.25
2019-02-26T06:56:49.096Z,56.25
2019-02-26T06:57:52.182Z,61.88
2019-02-26T06:58:48.337Z,61.88
2019-02-26T06:59:48.327Z,61.88
2019-02-26T07:00:52.022Z,67.50
2019-02-26T07:01:49.317Z,67.50
2019-02-26T07:02:48.318Z,67.50
2019-02-26T07:03:48.333Z,67.50
2019-02-26T07:04:48.331Z,73.12
2019-02-26T07:05:48.319Z,73.12
2019-02-26T07:06:48.316Z,73.12
2019-02-26T07:07:48.313Z,73.12
2019-02-26T07:08:48.985Z,78.75
2019-02-26T07:09:48.313Z,78.75
2019-02-26T07:10:48.323Z,78.75
2019-02-26T07:11:48.330Z,78.75
2019-02-26T07:12:50.554Z,84.38
2019-02-26T07:13:48.315Z,84.38
2019-02-26T07:14:50.743Z,84.38
2019-02-26T07:15:48.316Z,84.38
2019-02-26T07:16:48.329Z,84.38
2019-02-26T07:17:48.346Z,90.00
2019-02-26T07:18:48.317Z,90.00
2019-02-26T07:19:48.315Z,90.00
2019-02-26T07:20:52.028Z,90.00
2019-02-26T07:21:50.453Z,90.00
2019-02-26T07:22:49.622Z,90.00
2019-02-26T07:23:48.311Z,95.62
2019-02-26T07:24:49.488Z,95.62
2019-02-26T07:25:48.323Z,95.62
2019-02-26T07:26:48.451Z,95.62
2019-02-26T07:27:48.312Z,95.62
2019-02-26T07:28:49.208Z,101.25
2019-02-26T07:29:52.196Z,101.25
2019-02-26T07:30:48.311Z,101.25
2019-02-26T07:31:49.952Z,101.25
2019-02-26T07:32:48.393Z,101.25
2019-02-26T07:33:48.331Z,106.88
2019-02-26T07:34:49.686Z,106.88
2019-02-26T07:35:47.811Z,106.88
2019-02-26T07:36:49.685Z,106.88
2019-02-26T07:37:47.814Z,106.88
2019-02-26T07:38:49.671Z,106.88
2019-02-26T07:39:49.700Z,106.88
2019-02-26T07:40:47.813Z,106.88
2019-02-26T07:41:49.387Z,112.50
2019-02-26T07:42:49.273Z,112.50
2019-02-26T07:43:49.384Z,112.50
2019-02-26T07:44:47.837Z,112.50
2019-02-26T07:45:47.830Z,112.50
2019-02-26T07:46:47.837Z,112.50
2019-02-26T07:47:49.096Z,112.50
2019-02-26T07:48:48.838Z,118.12
2019-02-26T07:49:47.814Z,118.12
2019-02-26T07:50:49.021Z,118.12
2019-02-26T07:51:47.812Z,118.12
2019-02-26T07:52:49.629Z,118.12
2019-02-26T07:53:50.633Z,118.12
2019-02-26T07:54:49.515Z,118.12
2019-02-26T07:55:47.811Z,123.75
2019-02-26T07:56:47.812Z,123.75
2019-02-26T07:57:48.995Z,123.75
2019-02-26T07:58:47.841Z,123.75
2019-02-26T07:59:50.010Z,123.75
2019-02-26T08:00:49.798Z,123.75
2019-02-26T08:01:49.635Z,123.75
2019-02-26T08:02:47.811Z,123.75
2019-02-26T08:03:48.791Z,129.38
2019-02-26T08:04:47.833Z,129.38
2019-02-26T08:05:45.997Z,129.38
2019-02-26T08:06:47.823Z,129.38
2019-02-26T08:07:48.634Z,129.38
2019-02-26T08:08:48.956Z,129.38
2019-02-26T08:09:47.826Z,129.38
2019-02-26T08:10:48.885Z,129.38
2019-02-26T08:11:49.057Z,129.38
2019-02-26T08:12:47.808Z,135.00
2019-02-26T08:13:49.477Z,135.00
2019-02-26T08:14:49.666Z,135.00
2019-02-26T08:15:47.836Z,135.00
2019-02-26T08:16:51.329Z,135.00
2019-02-26T08:17:53.255Z,135.00
2019-02-26T08:18:49.447Z,135.00
2019-02-26T08:19:49.378Z,135.00
2019-02-26T08:20:47.825Z,135.00
2019-02-26T08:22:38.123Z,140.62
2019-02-26T08:23:41.379Z,140.62
2019-02-26T08:24:39.918Z,140.62
2019-02-26T08:25:39.918Z,140.62
2019-02-26T08:26:40.486Z,140.62
2019-02-26T08:27:39.930Z,140.62
2019-02-26T08:28:41.930Z,140.62
2019-02-26T08:29:39.915Z,140.62
2019-02-26T08:30:42.297Z,140.62
2019-02-26T08:31:42.562Z,140.62
2019-02-26T08:32:39.929Z,140.62
2019-02-26T08:33:39.927Z,140.62
2019-02-26T08:34:39.921Z,146.25
2019-02-26T08:35:39.914Z,146.25
2019-02-26T08:36:39.917Z,146.25
2019-02-26T08:37:39.947Z,146.25
2019-02-26T08:38:39.918Z,146.25
2019-02-26T08:39:39.917Z,146.25
2019-02-26T08:40:39.915Z,146.25
2019-02-26T08:41:39.918Z,146.25
2019-02-26T08:42:39.433Z,146.25
2019-02-26T08:43:42.178Z,146.25
2019-02-26T08:44:40.415Z,146.25
2019-02-26T08:45:37.883Z,146.25
2019-02-26T08:46:40.434Z,146.25
2019-02-26T08:47:39.438Z,151.88
2019-02-26T08:48:41.205Z,151.88
2019-02-26T08:49:40.734Z,151.88
2019-02-26T08:50:43.687Z,151.88
2019-02-26T08:51:39.416Z,151.88
2019-02-26T08:52:39.418Z,151.88
2019-02-26T08:53:39.432Z,151.88
2019-02-26T08:54:39.414Z,151.88
2019-02-26T08:55:39.430Z,151.88
2019-02-26T08:56:40.987Z,151.88
2019-02-26T08:57:39.414Z,151.88
2019-02-26T08:58:41.144Z,151.88
2019-02-26T08:59:39.419Z,151.88
2019-02-26T09:00:39.414Z,157.50
2019-02-26T09:01:39.443Z,157.50
2019-02-26T09:02:37.707Z,157.50
2019-02-26T09:03:40.876Z,157.50
2019-02-26T09:04:40.716Z,157.50
2019-02-26T09:05:39.644Z,157.50
2019-02-26T09:07:50.641Z,157.50
2019-02-26T09:08:50.645Z,157.50
2019-02-26T09:09:52.480Z,157.50
2019-02-26T09:10:50.630Z,157.50
2019-02-26T09:11:52.789Z,157.50
2019-02-26T09:13:43.279Z,163.12
2019-02-26T09:14:45.134Z,163.12
2019-02-26T09:15:43.213Z,163.12
2019-02-26T09:16:42.943Z,163.12
2019-02-26T09:17:42.903Z,163.12
2019-02-26T09:18:42.916Z,163.12
2019-02-26T09:19:41.123Z,163.12
2019-02-26T09:20:42.913Z,163.12
2019-02-26T09:21:45.269Z,163.12
2019-02-26T09:22:45.641Z,163.12
2019-02-26T09:23:42.930Z,168.75
2019-02-26T09:24:42.917Z,168.75
2019-02-26T09:25:42.910Z,168.75
2019-02-26T09:26:42.900Z,168.75
2019-02-26T09:27:43.227Z,168.75
2019-02-26T09:28:44.612Z,168.75
2019-02-26T09:29:48.840Z,168.75
2019-02-26T09:30:43.925Z,168.75
2019-02-26T09:31:43.564Z,168.75
2019-02-26T09:32:44.756Z,168.75
2019-02-26T09:33:43.607Z,168.75
2019-02-26T09:34:42.436Z,168.75
2019-02-26T09:35:42.414Z,168.75
2019-02-26T09:36:40.889Z,168.75
2019-02-26T09:37:42.862Z,174.38
2019-02-26T09:38:44.282Z,174.38
2019-02-26T09:39:42.403Z,174.38
2019-02-26T09:40:42.401Z,174.38
2019-02-26T09:41:44.927Z,174.38
2019-02-26T09:42:43.944Z,174.38
2019-02-26T09:43:43.283Z,174.38
2019-02-26T09:44:42.409Z,174.38
2019-02-26T09:45:43.610Z,174.38
2019-02-26T09:46:43.951Z,174.38
2019-02-26T09:47:42.413Z,174.38
2019-02-26T09:48:43.350Z,174.38
2019-02-26T09:49:42.404Z,174.38
2019-02-26T09:50:44.306Z,174.38
2019-02-26T09:51:42.416Z,174.38
2019-02-26T09:52:42.404Z,174.38
2019-02-26T09:53:42.413Z,174.38
2019-02-26T09:54:42.929Z,174.38
2019-02-26T09:55:42.413Z,174.38
2019-02-26T09:56:42.403Z,174.38
2019-02-26T09:57:42.404Z,174.38
2019-02-26T09:58:43.980Z,174.38
2019-02-26T09:59:42.411Z,174.38
2019-02-26T10:00:43.022Z,174.38
2019-02-26T10:01:42.901Z,180.00
2019-02-26T10:02:43.004Z,180.00
2019-02-26T10:03:42.433Z,180.00
2019-02-26T10:04:43.135Z,180.00
2019-02-26T10:05:42.401Z,174.38
2019-02-26T10:06:43.003Z,180.00
2019-02-26T10:07:42.409Z,180.00
2019-02-26T10:08:43.829Z,180.00
2019-02-26T10:09:45.990Z,180.00
2019-02-26T10:10:43.413Z,180.00
2019-02-26T10:11:44.350Z,180.00
2019-02-26T10:12:42.416Z,180.00
2019-02-26T10:13:44.373Z,180.00
2019-02-26T10:14:42.402Z,180.00
2019-02-26T10:15:44.646Z,180.00
2019-02-26T10:16:44.068Z,180.00
2019-02-26T10:17:43.231Z,180.00
2019-02-26T10:18:42.412Z,180.00
2019-02-26T10:19:42.980Z,180.00
2019-02-26T10:20:43.301Z,180.00
2019-02-26T10:21:43.131Z,180.00
2019-02-26T10:22:41.902Z,180.00
2019-02-26T10:23:41.904Z,180.00
2019-02-26T10:24:41.908Z,180.00
2019-02-26T10:25:41.931Z,180.00
2019-02-26T10:26:43.306Z,180.00
2019-02-26T10:27:43.190Z,180.00
2019-02-26T10:28:42.678Z,180.00
2019-02-26T10:29:44.871Z,180.00
2019-02-26T10:30:41.919Z,180.00
2019-02-26T10:31:41.914Z,180.00
2019-02-26T10:32:44.092Z,180.00
2019-02-26T10:33:43.027Z,180.00
2019-02-26T10:34:41.902Z,180.00
2019-02-26T10:35:44.891Z,180.00
2019-02-26T10:36:44.165Z,180.00
2019-02-26T10:37:43.623Z,180.00
2019-02-26T10:38:41.913Z,180.00
2019-02-26T10:39:42.637Z,180.00
2019-02-26T10:40:53.413Z,180.00
2019-02-26T10:41:44.255Z,180.00
2019-02-26T10:42:41.905Z,180.00
2019-02-26T10:43:41.905Z,180.00
2019-02-26T10:44:42.754Z,180.00
2019-02-26T10:45:44.767Z,180.00
2019-02-26T10:46:44.509Z,180.00
2019-02-26T10:47:41.932Z,180.00
2019-02-26T10:48:43.497Z,180.00
2019-02-26T10:49:41.903Z,180.00
2019-02-26T10:50:42.517Z,180.00
2019-02-26T10:51:43.188Z,180.00
2019-02-26T10:52:42.407Z,180.00
2019-02-26T10:54:39.344Z,185.62
2019-02-26T10:55:38.588Z,185.62
2019-02-26T10:56:39.085Z,185.62
2019-02-26T10:57:36.155Z,185.62
2019-02-26T10:58:34.136Z,185.62
2019-02-26T10:59:34.282Z,185.62
2019-02-26T11:00:37.543Z,185.62
2019-02-26T11:01:34.139Z,185.62
2019-02-26T11:02:34.192Z,185.62
2019-02-26T11:03:37.935Z,191.25
2019-02-26T11:04:38.075Z,185.62
2019-02-26T11:05:37.197Z,185.62
2019-02-26T11:06:36.697Z,185.62
2019-02-26T11:07:34.512Z,185.62
2019-02-26T11:08:35.083Z,185.62
2019-02-26T11:09:34.151Z,185.62
2019-02-26T11:10:34.137Z,185.62
2019-02-26T11:11:35.638Z,185.62
2019-02-26T11:12:34.139Z,185.62
2019-02-26T11:13:33.675Z,185.62
2019-02-26T11:14:36.231Z,185.62
2019-02-26T11:15:35.970Z,185.62
2019-02-26T11:16:35.840Z,185.62
2019-02-26T11:17:33.665Z,185.62
2019-02-26T11:18:34.778Z,185.62
2019-02-26T11:19:35.952Z,191.25
2019-02-26T11:20:34.646Z,191.25
2019-02-26T11:21:33.638Z,191.25
2019-02-26T11:22:33.641Z,191.25
2019-02-26T11:23:34.597Z,191.25
2019-02-26T11:24:36.101Z,191.25
2019-02-26T11:25:33.659Z,191.25
2019-02-26T11:26:35.934Z,196.88
2019-02-26T11:27:35.784Z,202.50
2019-02-26T11:28:38.064Z,202.50
2019-02-26T11:29:36.411Z,202.50
2019-02-26T11:30:33.640Z,202.50
2019-02-26T11:31:33.656Z,208.12
2019-02-26T11:32:37.252Z,208.12
2019-02-26T11:33:34.636Z,208.12
2019-02-26T11:34:35.690Z,208.12
2019-02-26T11:35:33.636Z,208.12
2019-02-26T11:36:33.507Z,208.12
2019-02-26T11:37:33.654Z,208.12
2019-02-26T11:38:34.772Z,208.12
2019-02-26T11:39:33.649Z,208.12
2019-02-26T11:40:33.759Z,208.12
2019-02-26T11:41:35.865Z,208.12
2019-02-26T11:42:33.639Z,213.75
2019-02-26T11:43:33.653Z,213.75
2019-02-26T11:44:33.646Z,213.75
2019-02-26T11:45:35.180Z,208.12
2019-02-26T11:46:34.396Z,208.12
2019-02-26T11:47:34.969Z,208.12
2019-02-26T11:48:33.638Z,213.75
2019-02-26T11:49:34.924Z,213.75
2019-02-26T11:50:33.638Z,213.75
2019-02-26T11:51:37.138Z,213.75
2019-02-26T11:52:33.749Z,213.75
2019-02-26T11:53:31.709Z,213.75
2019-02-26T11:54:35.060Z,213.75
2019-02-26T11:55:36.837Z,213.75
2019-02-26T11:56:33.651Z,213.75
2019-02-26T11:57:37.000Z,213.75
2019-02-26T11:58:33.638Z,213.75
2019-02-26T11:59:33.817Z,213.75
2019-02-26T12:00:36.331Z,213.75
2019-02-26T12:01:35.226Z,213.75
2019-02-26T12:02:34.391Z,213.75
2019-02-26T12:03:36.156Z,213.75
2019-02-26T12:04:33.151Z,213.75
2019-02-26T12:05:35.834Z,213.75
2019-02-26T12:06:33.142Z,213.75
2019-02-26T12:07:34.843Z,213.75
2019-02-26T12:08:33.142Z,213.75
2019-02-26T12:09:35.687Z,213.75
2019-02-26T12:10:32.465Z,213.75
2019-02-26T12:11:33.139Z,213.75
2019-02-26T12:12:34.229Z,213.75
2019-02-26T12:13:33.150Z,213.75
2019-02-26T12:14:34.736Z,213.75
2019-02-26T12:15:35.700Z,213.75
2019-02-26T12:16:34.143Z,213.75
2019-02-26T12:17:33.143Z,213.75
2019-02-26T12:18:34.247Z,213.75
2019-02-26T12:19:34.475Z,213.75
2019-02-26T12:20:33.145Z,213.75
2019-02-26T12:21:34.595Z,213.75
2019-02-26T12:22:33.144Z,213.75
2019-02-26T12:23:34.478Z,213.75
2019-02-26T12:24:33.676Z,213.75
2019-02-26T12:25:33.160Z,213.75
2019-02-26T12:26:33.142Z,213.75
2019-02-26T12:27:36.018Z,219.38
2019-02-26T12:28:35.934Z,219.38
2019-02-26T12:29:33.152Z,219.38
2019-02-26T12:30:34.929Z,219.38
2019-02-26T12:31:34.488Z,219.38
2019-02-26T12:32:33.142Z,219.38
2019-02-26T12:33:33.145Z,219.38
2019-02-26T12:34:34.975Z,219.38
2019-02-26T12:35:33.839Z,219.38
2019-02-26T12:36:35.400Z,219.38
2019-02-26T12:37:33.153Z,219.38
2019-02-26T12:38:36.526Z,219.38
2019-02-26T12:39:33.146Z,219.38
2019-02-26T12:40:33.143Z,219.38
2019-02-26T12:41:35.906Z,219.38
2019-02-26T12:42:33.154Z,225.00
2019-02-26T12:43:36.480Z,225.00
2019-02-26T12:44:37.428Z,225.00
2019-02-26T12:45:35.106Z,225.00
2019-02-26T12:46:33.828Z,225.00
2019-02-26T12:47:32.645Z,225.00
2019-02-26T12:48:35.194Z,225.00
2019-02-26T12:49:35.405Z,225.00
2019-02-26T12:50:36.413Z,225.00
2019-02-26T12:51:35.517Z,225.00
2019-02-26T12:52:32.710Z,225.00
2019-02-26T12:53:32.659Z,225.00
2019-02-26T12:54:33.613Z,225.00
2019-02-26T12:55:35.067Z,225.00
2019-02-26T12:56:36.721Z,225.00
2019-02-26T12:57:32.648Z,225.00
2019-02-26T12:58:32.645Z,219.38